createdAt,value
2018-09-21T00:00:53.585Z,11.13
2018-09-21T00:03:22.402Z,10.60
2018-09-21T00:05:51.209Z,12.83
2018-09-21T00:08:20.026Z,12.23
2018-09-21T00:10:48.835Z,11.67
2018-09-21T00:13:17.650Z,12.10
2018-09-21T00:15:46.605Z,11.07
2018-09-21T00:18:15.423Z,11.43
2018-09-21T00:20:44.272Z,12.70
2018-09-21T00:23:13.455Z,12.10
2018-09-21T00:25:42.281Z,11.63
2018-09-21T00:28:11.057Z,12.00
2018-09-21T00:30:39.940Z,12.77
2018-09-21T00:33:08.754Z,11.97
2018-09-21T00:35:37.992Z,13.20
2018-09-21T00:38:06.839Z,12.60
2018-09-21T00:40:35.622Z,11.40
2018-09-21T00:43:04.456Z,12.00
2018-09-21T00:45:33.819Z,11.70
2018-09-21T00:48:02.678Z,12.77
2018-09-21T00:50:31.477Z,12.27
2018-09-21T00:53:00.365Z,12.77
2018-09-21T00:55:29.173Z,11.93
2018-09-21T00:57:57.980Z,11.20
2018-09-21T01:00:26.807Z,11.55
2018-09-21T01:02:55.622Z,11.37
2018-09-21T01:05:24.432Z,11.20
2018-09-21T01:07:53.686Z,11.93
2018-09-21T01:10:22.490Z,11.37
2018-09-21T01:12:51.315Z,11.90
2018-09-21T01:15:20.254Z,10.13
2018-09-21T01:17:49.137Z,10.87
2018-09-21T01:20:17.932Z,11.20
2018-09-21T01:22:46.725Z,12.03
2018-09-21T01:25:15.528Z,11.57
2018-09-21T01:27:44.318Z,11.83
2018-09-21T01:30:13.434Z,11.97
2018-09-21T01:32:42.256Z,11.07
2018-09-21T01:35:11.065Z,13.20
2018-09-21T01:37:40.383Z,11.50
2018-09-21T01:40:09.235Z,12.40
2018-09-21T01:42:38.102Z,10.80
2018-09-21T01:45:08.361Z,12.45
2018-09-21T01:47:37.157Z,12.73
2018-09-21T01:50:08.058Z,12.90
2018-09-21T01:52:37.217Z,11.67
2018-09-21T01:55:06.038Z,11.80
2018-09-21T01:57:34.848Z,11.03
2018-09-21T02:00:03.928Z,11.70
2018-09-21T02:02:32.743Z,11.60
2018-09-21T02:05:01.585Z,11.80
2018-09-21T02:07:30.473Z,11.37
2018-09-21T02:10:00.142Z,13.17
2018-09-21T02:12:29.075Z,11.77
2018-09-21T02:14:58.369Z,10.80
2018-09-21T02:17:27.184Z,10.57
2018-09-21T02:19:56.054Z,11.07
2018-09-21T02:22:24.902Z,11.57
2018-09-21T02:24:53.692Z,10.63
2018-09-21T02:27:22.508Z,10.70
2018-09-21T02:29:51.367Z,11.60
2018-09-21T02:32:20.216Z,11.27
2018-09-21T02:34:49.022Z,10.07
2018-09-21T02:37:18.275Z,10.50
2018-09-21T02:39:47.532Z,10.40
2018-09-21T02:42:16.458Z,10.83
2018-09-21T02:44:45.379Z,11.10
2018-09-21T02:47:14.173Z,10.63
2018-09-21T02:49:43.000Z,11.57
2018-09-21T02:52:11.852Z,11.03
2018-09-21T02:54:40.697Z,10.87
2018-09-21T02:57:09.537Z,11.10
2018-09-21T02:59:38.690Z,11.97
2018-09-21T03:02:07.502Z,11.93
2018-09-21T03:04:40.463Z,11.30
2018-09-21T03:07:09.296Z,11.45
2018-09-21T03:09:38.116Z,10.20
2018-09-21T03:12:06.956Z,10.30
2018-09-21T03:14:35.807Z,10.77
2018-09-21T03:17:04.644Z,10.70
2018-09-21T03:19:33.828Z,10.83
2018-09-21T03:22:02.625Z,9.77
2018-09-21T03:24:31.460Z,10.30
2018-09-21T03:27:00.347Z,11.10
2018-09-21T03:29:29.190Z,11.20
2018-09-21T03:31:58.029Z,10.87
2018-09-21T03:34:27.176Z,10.23
2018-09-21T03:36:56.172Z,10.87
2018-09-21T03:39:24.991Z,11.53
2018-09-21T03:41:54.397Z,11.13
2018-09-21T03:44:23.223Z,10.93
2018-09-21T03:46:52.339Z,11.30
2018-09-21T03:49:21.235Z,11.27
2018-09-21T03:51:50.457Z,11.43
2018-09-21T03:54:19.287Z,13.00
2018-09-21T03:56:48.166Z,11.73
2018-09-21T03:59:17.006Z,12.07
2018-09-21T04:01:45.818Z,10.70
2018-09-21T04:04:15.088Z,10.83
2018-09-21T04:06:43.900Z,11.43
2018-09-21T04:09:12.731Z,12.23
2018-09-21T04:11:41.655Z,11.27
2018-09-21T04:14:10.455Z,11.50
2018-09-21T04:16:39.248Z,12.13
2018-09-21T04:19:08.103Z,10.87
2018-09-21T04:21:36.923Z,11.33
2018-09-21T04:24:05.758Z,11.57
2018-09-21T04:26:34.824Z,12.70
2018-09-21T04:29:03.643Z,12.13
2018-09-21T04:31:35.471Z,12.53
2018-09-21T04:34:04.348Z,12.73
2018-09-21T04:36:33.177Z,13.17
2018-09-21T04:39:02.043Z,12.57
2018-09-21T04:41:30.882Z,11.70
2018-09-21T04:44:00.319Z,12.00
2018-09-21T04:46:29.118Z,11.67
2018-09-21T04:48:58.396Z,12.73
2018-09-21T04:51:27.271Z,13.60
2018-09-21T04:53:56.083Z,13.07
2018-09-21T04:56:24.903Z,12.27
2018-09-21T04:58:53.744Z,12.63
2018-09-21T05:01:22.752Z,12.17
2018-09-21T05:03:51.857Z,12.70
2018-09-21T05:06:21.047Z,12.47
2018-09-21T05:08:49.925Z,11.87
2018-09-21T05:11:19.240Z,12.70
2018-09-21T05:13:48.275Z,11.17
2018-09-21T05:16:17.035Z,13.00
2018-09-21T05:18:45.878Z,11.67
2018-09-21T05:21:14.907Z,11.70
2018-09-21T05:23:43.698Z,12.37
2018-09-21T05:26:12.538Z,11.83
2018-09-21T05:28:41.351Z,12.47
2018-09-21T05:31:10.366Z,11.80
2018-09-21T05:33:39.564Z,11.73
2018-09-21T05:36:08.460Z,12.37
2018-09-21T05:38:37.282Z,11.67
2018-09-21T05:41:06.170Z,11.83
2018-09-21T05:43:35.031Z,12.43
2018-09-21T05:46:04.154Z,12.90
2018-09-21T05:48:33.082Z,11.77
2018-09-21T05:51:01.911Z,13.67
2018-09-21T05:53:30.862Z,11.87
2018-09-21T05:56:00.025Z,13.73
2018-09-21T05:58:28.867Z,12.47
2018-09-21T06:00:57.716Z,12.47
2018-09-21T06:03:26.543Z,11.60
2018-09-21T06:05:55.404Z,12.07
2018-09-21T06:08:24.222Z,10.80
2018-09-21T06:10:53.091Z,11.00
2018-09-21T06:13:21.907Z,11.53
2018-09-21T06:15:50.755Z,11.13
2018-09-21T06:18:20.394Z,13.10
2018-09-21T06:20:49.222Z,10.33
2018-09-21T06:23:18.058Z,12.23
2018-09-21T06:25:47.009Z,10.83
2018-09-21T06:28:15.834Z,11.57
2018-09-21T06:30:44.654Z,12.67
2018-09-21T06:33:13.532Z,11.97
2018-09-21T06:35:42.363Z,11.77
2018-09-21T06:38:11.174Z,12.30
2018-09-21T06:40:40.351Z,11.03
2018-09-21T06:43:09.168Z,11.63
2018-09-21T06:45:37.965Z,11.53
2018-09-21T06:48:07.463Z,12.27
2018-09-21T06:50:36.274Z,11.63
2018-09-21T06:53:05.112Z,10.57
2018-09-21T06:55:33.954Z,11.33
2018-09-21T06:58:02.774Z,10.07
2018-09-21T07:00:31.591Z,10.93
2018-09-21T07:03:00.672Z,11.03
2018-09-21T07:05:29.479Z,11.37
2018-09-21T07:07:58.322Z,11.17
2018-09-21T07:10:27.231Z,11.60
2018-09-21T07:12:56.056Z,10.40
2018-09-21T07:15:25.776Z,11.20
2018-09-21T07:17:54.602Z,10.27
2018-09-21T07:20:23.426Z,10.63
2018-09-21T07:22:52.238Z,10.30
2018-09-21T07:25:21.924Z,10.67
2018-09-21T07:27:50.732Z,10.40
2018-09-21T07:30:19.566Z,10.10
2018-09-21T07:32:48.418Z,10.20
2018-09-21T07:35:17.238Z,10.37
2018-09-21T07:37:46.075Z,9.80
2018-09-21T07:40:14.991Z,11.60
2018-09-21T07:42:43.842Z,13.10
2018-09-21T07:45:12.667Z,10.53
2018-09-21T07:47:42.024Z,8.73
2018-09-21T07:50:11.150Z,11.40
2018-09-21T07:52:40.025Z,11.73
2018-09-21T07:55:08.868Z,10.43
2018-09-21T07:57:37.670Z,9.30
2018-09-21T08:00:07.772Z,13.00
2018-09-21T08:02:36.594Z,8.60
2018-09-21T08:05:05.519Z,11.57
2018-09-21T08:07:34.326Z,10.30
2018-09-21T08:10:03.619Z,9.13
2018-09-21T08:12:32.464Z,10.10
2018-09-21T08:15:01.279Z,8.40
2018-09-21T08:17:30.152Z,9.57
2018-09-21T08:19:58.958Z,8.97
2018-09-21T08:22:27.768Z,8.60
2018-09-21T08:24:56.629Z,8.50
2018-09-21T08:27:25.483Z,9.90
2018-09-21T08:29:54.296Z,9.23
2018-09-21T08:32:23.919Z,8.63
2018-09-21T08:34:52.731Z,8.00
2018-09-21T08:37:21.672Z,6.83
2018-09-21T08:39:50.411Z,7.07
2018-09-21T08:42:26.019Z,7.10
2018-09-21T08:44:54.864Z,7.30
2018-09-21T08:47:23.722Z,7.53
2018-09-21T08:49:52.538Z,8.80
2018-09-21T08:52:22.286Z,8.28
2018-09-21T08:54:51.322Z,7.97
2018-09-21T08:57:20.406Z,7.00
2018-09-21T08:59:49.265Z,6.47
2018-09-21T09:02:18.064Z,6.83
2018-09-21T09:04:46.890Z,6.42
2018-09-21T09:07:15.706Z,5.97
2018-09-21T09:09:44.509Z,7.10
2018-09-21T09:12:13.330Z,7.20
2018-09-21T09:14:42.636Z,8.93
2018-09-21T09:17:11.451Z,10.38
2018-09-21T09:19:40.280Z,7.10
2018-09-21T09:22:09.094Z,7.62
2018-09-21T09:24:38.071Z,7.55
2018-09-21T09:27:06.846Z,7.50
2018-09-21T09:29:35.690Z,7.03
2018-09-21T09:32:04.493Z,7.75
2018-09-21T09:34:33.298Z,7.03
2018-09-21T09:37:02.466Z,8.00
2018-09-21T09:39:31.330Z,6.75
2018-09-21T09:42:00.247Z,7.45
2018-09-21T09:44:29.055Z,7.25
2018-09-21T09:46:57.886Z,7.50
2018-09-21T09:49:26.701Z,6.83
2018-09-21T09:51:55.572Z,6.37
2018-09-21T09:54:24.887Z,7.28
2018-09-21T09:56:53.714Z,7.92
2018-09-21T09:59:22.911Z,7.85
2018-09-21T10:01:51.732Z,7.40
2018-09-21T10:04:20.591Z,7.97
2018-09-21T10:06:49.417Z,7.60
2018-09-21T10:09:18.223Z,6.72
2018-09-21T10:11:47.042Z,6.40
2018-09-21T10:14:15.907Z,6.97
2018-09-21T10:16:44.731Z,7.20
2018-09-21T10:19:13.580Z,6.25
2018-09-21T10:21:42.822Z,5.78
2018-09-21T10:24:11.670Z,6.85
2018-09-21T10:26:40.463Z,6.53
2018-09-21T10:29:09.355Z,6.87
2018-09-21T10:31:38.099Z,5.90
2018-09-21T10:34:06.967Z,6.35
2018-09-21T10:36:35.822Z,6.40
2018-09-21T10:39:06.270Z,25.25
2018-09-21T10:41:35.087Z,8.40
2018-09-21T10:44:04.464Z,6.70
2018-09-21T10:46:33.307Z,6.60
2018-09-21T10:49:02.128Z,6.10
2018-09-21T10:51:31.084Z,6.67
2018-09-21T10:53:59.943Z,6.15
2018-09-21T10:56:29.070Z,5.92
2018-09-21T10:58:57.914Z,5.72
2018-09-21T11:01:26.743Z,6.47
2018-09-21T11:03:55.684Z,6.53
2018-09-21T11:06:24.923Z,7.78
2018-09-21T11:08:53.790Z,7.47
2018-09-21T11:11:22.709Z,5.95
2018-09-21T11:13:51.611Z,7.75
2018-09-21T11:16:20.448Z,6.75
2018-09-21T11:18:49.389Z,6.70
2018-09-21T11:21:18.255Z,5.97
2018-09-21T11:23:47.089Z,8.03
2018-09-21T11:26:15.951Z,6.67
2018-09-21T11:28:45.116Z,6.28
2018-09-21T11:31:13.911Z,5.92
2018-09-21T11:33:42.790Z,6.47
2018-09-21T11:36:11.730Z,6.47
2018-09-21T11:38:40.634Z,6.35
2018-09-21T11:41:09.469Z,6.83
2018-09-21T11:43:38.308Z,6.35
2018-09-21T11:46:07.334Z,7.05
2018-09-21T11:48:36.335Z,6.47
2018-09-21T11:51:05.645Z,6.50
2018-09-21T11:53:34.491Z,6.53
2018-09-21T11:56:03.336Z,8.08
2018-09-21T11:58:32.554Z,6.33
2018-09-21T12:01:01.407Z,7.83
2018-09-21T12:03:30.213Z,7.65
2018-09-21T12:05:59.308Z,7.08
2018-09-21T12:08:28.124Z,8.25
2018-09-21T12:10:56.950Z,6.37
2018-09-21T12:13:25.893Z,7.53
2018-09-21T12:15:54.744Z,7.70
2018-09-21T12:18:23.619Z,26.52
2018-09-21T12:20:52.550Z,8.30
2018-09-21T12:23:21.374Z,6.60
2018-09-21T12:25:50.263Z,7.78
2018-09-21T12:28:19.163Z,11.55
2018-09-21T12:30:47.982Z,6.75
2018-09-21T12:33:16.819Z,6.97
2018-09-21T12:35:45.989Z,6.22
2018-09-21T12:38:14.785Z,6.42
2018-09-21T12:40:43.587Z,6.45
2018-09-21T12:43:12.404Z,6.15
2018-09-21T12:45:41.263Z,6.20
2018-09-21T12:48:10.099Z,6.65
2018-09-21T12:50:39.054Z,6.37
2018-09-21T12:53:07.812Z,6.70
2018-09-21T12:55:36.903Z,6.55
2018-09-21T12:58:06.118Z,6.08
2018-09-21T13:00:41.024Z,8.05
2018-09-21T13:03:09.925Z,7.53
2018-09-21T13:05:38.746Z,7.17
2018-09-21T13:08:07.570Z,6.97
2018-09-21T13:10:36.691Z,6.83
2018-09-21T13:13:05.530Z,7.67
2018-09-21T13:15:34.383Z,6.40
2018-09-21T13:18:10.350Z,6.47
2018-09-21T13:20:39.195Z,6.55
2018-09-21T13:23:08.078Z,6.47
2018-09-21T13:25:39.799Z,6.47
2018-09-21T13:28:08.875Z,6.03
2018-09-21T13:30:37.705Z,8.90
2018-09-21T13:33:06.590Z,9.58
2018-09-21T13:35:35.404Z,8.53
2018-09-21T13:38:04.285Z,9.60
2018-09-21T13:40:33.288Z,9.20
2018-09-21T13:43:02.123Z,9.48
2018-09-21T13:45:33.836Z,8.05
2018-09-21T13:48:02.684Z,6.92
2018-09-21T13:50:31.603Z,6.47
2018-09-21T13:53:00.502Z,6.12
2018-09-21T13:55:29.324Z,6.28
2018-09-21T13:57:58.189Z,6.45
2018-09-21T14:00:27.161Z,6.67
2018-09-21T14:02:56.996Z,6.55
2018-09-21T14:05:25.949Z,6.83
2018-09-21T14:07:54.718Z,5.80
2018-09-21T14:10:23.579Z,6.03
2018-09-21T14:12:52.471Z,7.12
2018-09-21T14:15:21.304Z,6.83
2018-09-21T14:17:50.303Z,6.37
2018-09-21T14:20:19.142Z,6.40
2018-09-21T14:22:48.140Z,6.47
2018-09-21T14:25:17.164Z,7.30
2018-09-21T14:27:46.031Z,7.22
2018-09-21T14:30:14.861Z,6.83
2018-09-21T14:32:43.757Z,6.53
2018-09-21T14:35:12.603Z,6.63
2018-09-21T14:37:41.443Z,7.22
2018-09-21T14:40:10.258Z,6.53
2018-09-21T14:42:39.059Z,8.63
2018-09-21T14:45:08.925Z,6.82
2018-09-21T14:47:37.944Z,17.15
2018-09-21T14:50:08.832Z,11.54
2018-09-21T14:52:37.942Z,9.65
2018-09-21T14:55:08.939Z,5.90
2018-09-21T14:57:37.839Z,4.35
2018-09-21T15:00:08.374Z,4.12
2018-09-21T15:02:37.238Z,4.60
2018-09-21T15:05:06.564Z,3.17
2018-09-21T15:07:35.396Z,2.87
2018-09-21T15:10:04.420Z,3.27
2018-09-21T15:12:33.303Z,4.20
2018-09-21T15:15:02.225Z,3.60
2018-09-21T15:17:31.105Z,1.97
2018-09-21T15:19:59.983Z,1.10
2018-09-21T15:22:28.799Z,1.40
2018-09-21T15:24:57.688Z,1.30
2018-09-21T15:27:26.495Z,1.60
2018-09-21T15:29:55.314Z,1.13
2018-09-21T15:32:24.490Z,1.20
2018-09-21T15:34:53.286Z,1.30
2018-09-21T15:37:22.090Z,1.10
2018-09-21T15:39:50.930Z,1.50
2018-09-21T15:42:19.791Z,1.60
2018-09-21T15:44:48.615Z,1.43
2018-09-21T15:47:17.485Z,1.30
2018-09-21T15:49:46.368Z,1.30
2018-09-21T15:52:15.202Z,1.40
2018-09-21T15:54:44.329Z,1.40
2018-09-21T15:57:13.159Z,1.70
2018-09-21T15:59:41.970Z,1.30
2018-09-21T16:02:10.779Z,1.30
2018-09-21T16:04:39.602Z,1.33
2018-09-21T16:07:09.144Z,1.23
2018-09-21T16:09:37.976Z,0.87
2018-09-21T16:12:06.835Z,1.30
2018-09-21T16:14:35.656Z,1.27
2018-09-21T16:17:05.042Z,4.53
2018-09-21T16:19:33.850Z,1.70
2018-09-21T16:22:02.726Z,1.40
2018-09-21T16:24:31.550Z,2.10
2018-09-21T16:27:00.364Z,1.50
2018-09-21T16:29:29.155Z,1.40
2018-09-21T16:31:58.022Z,1.80
2018-09-21T16:34:26.871Z,1.30
2018-09-21T16:36:55.720Z,1.27
2018-09-21T16:39:24.838Z,1.53
2018-09-21T16:41:53.635Z,1.53
2018-09-21T16:44:22.446Z,1.87
2018-09-21T16:46:51.281Z,2.37
2018-09-21T16:49:20.106Z,2.00
2018-09-21T16:51:49.006Z,1.80
2018-09-21T16:54:17.827Z,1.50
2018-09-21T16:56:46.643Z,1.80
2018-09-21T16:59:15.439Z,1.77
2018-09-21T17:01:45.073Z,1.27
2018-09-21T17:04:13.889Z,1.37
2018-09-21T17:06:42.711Z,1.97
2018-09-21T17:09:12.852Z,1.40
2018-09-21T17:11:41.688Z,2.03
2018-09-21T17:14:10.568Z,1.73
2018-09-21T17:16:39.459Z,1.93
2018-09-21T17:19:08.459Z,1.83
2018-09-21T17:21:37.282Z,1.63
2018-09-21T17:24:06.565Z,1.80
2018-09-21T17:26:35.419Z,1.80
2018-09-21T17:29:04.252Z,1.80
2018-09-21T17:31:33.146Z,2.10
2018-09-21T17:34:01.999Z,1.90
2018-09-21T17:36:30.830Z,1.90
2018-09-21T17:38:59.675Z,1.87
2018-09-21T17:41:28.483Z,1.83
2018-09-21T17:43:57.345Z,1.80
2018-09-21T17:46:26.646Z,2.40
2018-09-21T17:48:55.479Z,2.20
2018-09-21T17:51:24.331Z,1.90
2018-09-21T17:53:53.204Z,2.10
2018-09-21T17:56:22.019Z,2.33
2018-09-21T17:58:50.833Z,2.53
2018-09-21T18:01:19.695Z,1.93
2018-09-21T18:03:48.526Z,2.07
2018-09-21T18:06:17.342Z,2.17
2018-09-21T18:08:46.668Z,2.00
2018-09-21T18:11:15.811Z,2.10
2018-09-21T18:13:44.635Z,3.33
2018-09-21T18:16:13.664Z,2.47
2018-09-21T18:18:42.460Z,2.37
2018-09-21T18:21:11.314Z,2.23
2018-09-21T18:23:40.139Z,2.10
2018-09-21T18:26:09.076Z,2.00
2018-09-21T18:28:37.863Z,2.47
2018-09-21T18:31:06.968Z,2.40
2018-09-21T18:33:35.798Z,2.20
2018-09-21T18:36:04.644Z,2.67
2018-09-21T18:38:33.535Z,2.77
2018-09-21T18:41:02.348Z,3.30
2018-09-21T18:43:31.218Z,3.47
2018-09-21T18:46:00.093Z,3.60
2018-09-21T18:48:29.055Z,2.53
2018-09-21T18:50:57.933Z,2.70
2018-09-21T18:53:27.316Z,3.30
2018-09-21T18:55:56.227Z,3.07
2018-09-21T18:58:25.050Z,2.70
2018-09-21T19:00:53.867Z,3.10
2018-09-21T19:03:22.681Z,3.00
2018-09-21T19:05:51.519Z,3.40
2018-09-21T19:08:20.334Z,2.77
2018-09-21T19:10:49.153Z,3.00
2018-09-21T19:13:18.318Z,3.67
2018-09-21T19:15:47.438Z,2.37
2018-09-21T19:18:16.258Z,3.37
2018-09-21T19:20:45.068Z,2.83
2018-09-21T19:23:13.901Z,2.80
2018-09-21T19:25:42.722Z,3.27
2018-09-21T19:28:11.567Z,3.60
2018-09-21T19:30:40.340Z,3.13
2018-09-21T19:33:09.164Z,2.77
2018-09-21T19:35:37.974Z,2.90
2018-09-21T19:38:07.047Z,3.00
2018-09-21T19:40:35.858Z,3.17
2018-09-21T19:43:04.787Z,2.87
2018-09-21T19:45:33.627Z,3.90
2018-09-21T19:48:02.468Z,3.57
2018-09-21T19:50:31.274Z,3.70
2018-09-21T19:53:00.112Z,3.23
2018-09-21T19:55:28.944Z,3.33
2018-09-21T19:57:57.773Z,3.10
2018-09-21T20:00:27.063Z,3.43
2018-09-21T20:02:55.871Z,3.30
2018-09-21T20:05:24.701Z,3.50
2018-09-21T20:07:53.554Z,3.57
2018-09-21T20:10:22.427Z,3.23
2018-09-21T20:12:51.229Z,2.60
2018-09-21T20:15:20.538Z,3.00
2018-09-21T20:17:49.710Z,3.33
2018-09-21T20:20:18.509Z,2.97
2018-09-21T20:22:47.799Z,3.17
2018-09-21T20:25:16.690Z,3.23
2018-09-21T20:27:45.486Z,3.10
2018-09-21T20:30:19.615Z,2.77
2018-09-21T20:32:53.941Z,2.87
2018-09-21T20:35:22.824Z,3.70
2018-09-21T20:37:51.619Z,3.10
2018-09-21T20:40:20.457Z,3.63
2018-09-21T20:42:49.669Z,2.97
2018-09-21T20:45:18.468Z,3.00
2018-09-21T20:47:47.286Z,3.00
2018-09-21T20:50:16.149Z,2.98
2018-09-21T20:52:44.945Z,2.87
2018-09-21T20:55:13.779Z,2.90
2018-09-21T20:57:42.586Z,2.73
2018-09-21T21:00:11.383Z,2.80
2018-09-21T21:02:40.180Z,2.87
2018-09-21T21:05:09.293Z,2.87
2018-09-21T21:07:38.082Z,2.70
2018-09-21T21:10:08.291Z,2.72
2018-09-21T21:12:37.126Z,2.73
2018-09-21T21:15:06.539Z,2.63
2018-09-21T21:17:35.989Z,2.23
2018-09-21T21:20:05.112Z,3.17
2018-09-21T21:22:33.952Z,2.80
2018-09-21T21:25:08.818Z,3.20
2018-09-21T21:27:37.666Z,2.60
2018-09-21T21:35:05.998Z,2.70
2018-09-21T21:37:35.243Z,3.07
2018-09-21T21:40:04.149Z,2.70
2018-09-21T21:42:33.664Z,2.57
2018-09-21T21:45:02.498Z,2.83
2018-09-21T21:47:31.384Z,1.80
2018-09-21T21:50:00.216Z,2.10
2018-09-21T21:52:29.079Z,2.07
2018-09-21T21:54:57.947Z,1.80
2018-09-21T21:57:26.820Z,2.00
2018-09-21T21:59:55.795Z,2.27
2018-09-21T22:02:24.748Z,1.83
2018-09-21T22:04:53.809Z,2.10
2018-09-21T22:07:22.746Z,1.73
2018-09-21T22:09:51.583Z,1.90
2018-09-21T22:12:25.934Z,1.83
2018-09-21T22:14:54.774Z,1.93
2018-09-21T22:17:23.618Z,1.57
2018-09-21T22:19:53.026Z,1.57
2018-09-21T22:22:21.865Z,1.27
2018-09-21T22:24:50.721Z,1.67
2018-09-21T22:27:19.779Z,1.80
2018-09-21T22:29:48.631Z,1.77
2018-09-21T22:32:17.475Z,1.50
2018-09-21T22:34:46.319Z,2.10
2018-09-21T22:37:18.213Z,2.03
2018-09-21T22:39:47.083Z,1.77
2018-09-21T22:42:15.921Z,1.73
2018-09-21T22:44:44.763Z,1.70
2018-09-21T22:47:14.023Z,1.53
2018-09-21T22:49:42.875Z,1.83
2018-09-21T22:52:11.734Z,1.57
2018-09-21T22:54:40.563Z,2.07
2018-09-21T22:57:09.371Z,1.80
2018-09-21T22:59:38.210Z,1.87
2018-09-21T23:02:07.027Z,1.90
2018-09-21T23:04:35.898Z,2.77
2018-09-21T23:07:04.794Z,2.17
2018-09-21T23:09:33.719Z,2.00
2018-09-21T23:12:02.609Z,1.97
2018-09-21T23:14:31.461Z,2.37
2018-09-21T23:17:00.293Z,2.63
2018-09-21T23:19:29.127Z,2.20
2018-09-21T23:21:58.287Z,2.47
2018-09-21T23:24:27.187Z,2.20
2018-09-21T23:26:56.014Z,2.30
2018-09-21T23:29:24.847Z,1.90
2018-09-21T23:31:54.044Z,1.77
2018-09-21T23:34:22.818Z,2.00
2018-09-21T23:36:51.655Z,1.80
2018-09-21T23:39:20.536Z,1.73
2018-09-21T23:41:49.399Z,1.73
2018-09-21T23:44:18.338Z,2.10
2018-09-21T23:46:47.230Z,2.13
2018-09-21T23:49:16.055Z,1.90
2018-09-21T23:51:44.885Z,1.77
2018-09-21T23:54:14.179Z,1.63
2018-09-21T23:56:43.059Z,1.47
2018-09-21T23:59:11.886Z,1.70
